sensor_id;sensor_type;location;lat;lon;timestamp;temperature;humidity
18297;DHT22;18066;52.106;5.534;2023-03-14T00:02:18;12.40;99.90
18297;DHT22;18066;52.106;5.534;2023-03-14T00:04:48;12.30;99.90
18297;DHT22;18066;52.106;5.534;2023-03-14T00:07:15;12.30;99.90
18297;DHT22;18066;52.106;5.534;2023-03-14T00:09:41;12.20;99.90
18297;DHT22;18066;52.106;5.534;2023-03-14T00:12:09;12.20;99.90
18297;DHT22;18066;52.106;5.534;2023-03-14T00:14:35;12.10;99.90
18297;DHT22;18066;52.106;5.534;2023-03-14T00:17:02;12.10;99.90
18297;DHT22;18066;52.106;5.534;2023-03-14T00:19:29;12.10;99.90
18297;DHT22;18066;52.106;5.534;2023-03-14T00:21:57;12.00;99.90
18297;DHT22;18066;52.106;5.534;2023-03-14T00:24:24;11.90;99.90
18297;DHT22;18066;52.106;5.534;2023-03-14T00:26:51;11.90;99.90
18297;DHT22;18066;52.106;5.534;2023-03-14T00:29:18;11.90;99.90
18297;DHT22;18066;52.106;5.534;2023-03-14T00:31:45;11.90;99.90
18297;DHT22;18066;52.106;5.534;2023-03-14T00:34:11;11.90;99.90
18297;DHT22;18066;52.106;5.534;2023-03-14T00:36:38;11.90;99.90
18297;DHT22;18066;52.106;5.534;2023-03-14T00:39:06;12.10;99.90
18297;DHT22;18066;52.106;5.534;2023-03-14T00:41:33;11.90;99.90
18297;DHT22;18066;52.106;5.534;2023-03-14T00:44:00;11.90;99.90
18297;DHT22;18066;52.106;5.534;2023-03-14T00:46:27;11.70;99.90
18297;DHT22;18066;52.106;5.534;2023-03-14T00:48:54;11.70;99.90
18297;DHT22;18066;52.106;5.534;2023-03-14T00:51:21;11.60;99.90
18297;DHT22;18066;52.106;5.534;2023-03-14T00:53:47;11.60;99.90
18297;DHT22;18066;52.106;5.534;2023-03-14T00:56:16;11.70;99.90
18297;DHT22;18066;52.106;5.534;2023-03-14T00:58:43;11.60;99.90
18297;DHT22;18066;52.106;5.534;2023-03-14T01:01:13;11.70;99.90
18297;DHT22;18066;52.106;5.534;2023-03-14T01:03:40;11.70;99.90
18297;DHT22;18066;52.106;5.534;2023-03-14T01:06:09;11.70;99.90
18297;DHT22;18066;52.106;5.534;2023-03-14T01:08:35;11.60;99.90
18297;DHT22;18066;52.106;5.534;2023-03-14T01:11:06;11.60;99.90
18297;DHT22;18066;52.106;5.534;2023-03-14T01:13:34;11.60;99.90
18297;DHT22;18066;52.106;5.534;2023-03-14T01:16:02;11.50;99.90
18297;DHT22;18066;52.106;5.534;2023-03-14T01:18:31;11.30;99.90
18297;DHT22;18066;52.106;5.534;2023-03-14T01:20:58;11.30;99.90
18297;DHT22;18066;52.106;5.534;2023-03-14T01:23:24;11.20;99.90
18297;DHT22;18066;52.106;5.534;2023-03-14T01:25:51;11.20;99.90
18297;DHT22;18066;52.106;5.534;2023-03-14T01:28:18;11.10;99.90
18297;DHT22;18066;52.106;5.534;2023-03-14T01:30:46;11.00;99.90
18297;DHT22;18066;52.106;5.534;2023-03-14T01:33:13;10.90;99.90
18297;DHT22;18066;52.106;5.534;2023-03-14T01:35:40;10.80;99.90
18297;DHT22;18066;52.106;5.534;2023-03-14T01:38:07;10.60;99.90
18297;DHT22;18066;52.106;5.534;2023-03-14T01:40:33;10.50;99.90
18297;DHT22;18066;52.106;5.534;2023-03-14T01:43:13;10.50;99.90
18297;DHT22;18066;52.106;5.534;2023-03-14T01:46:22;10.40;99.90
18297;DHT22;18066;52.106;5.534;2023-03-14T01:48:57;10.30;99.90
18297;DHT22;18066;52.106;5.534;2023-03-14T01:51:30;10.20;99.90
18297;DHT22;18066;52.106;5.534;2023-03-14T01:54:05;10.20;99.90
18297;DHT22;18066;52.106;5.534;2023-03-14T01:56:33;10.20;99.90
18297;DHT22;18066;52.106;5.534;2023-03-14T01:59:04;10.10;99.90
18297;DHT22;18066;52.106;5.534;2023-03-14T02:01:35;10.20;99.90
18297;DHT22;18066;52.106;5.534;2023-03-14T02:04:05;10.20;99.90
18297;DHT22;18066;52.106;5.534;2023-03-14T02:06:38;10.20;99.90
18297;DHT22;18066;52.106;5.534;2023-03-14T02:09:07;10.20;99.90
18297;DHT22;18066;52.106;5.534;2023-03-14T02:11:34;10.20;99.90
18297;DHT22;18066;52.106;5.534;2023-03-14T02:14:01;10.20;99.90
18297;DHT22;18066;52.106;5.534;2023-03-14T02:16:30;10.20;99.90
18297;DHT22;18066;52.106;5.534;2023-03-14T02:18:58;10.20;99.90
18297;DHT22;18066;52.106;5.534;2023-03-14T02:21:34;10.20;99.90
18297;DHT22;18066;52.106;5.534;2023-03-14T02:24:09;10.20;99.90
18297;DHT22;18066;52.106;5.534;2023-03-14T02:26:44;10.20;99.90
18297;DHT22;18066;52.106;5.534;2023-03-14T02:29:13;10.10;99.90
18297;DHT22;18066;52.106;5.534;2023-03-14T02:31:40;10.20;99.90
18297;DHT22;18066;52.106;5.534;2023-03-14T02:34:06;10.30;99.90
18297;DHT22;18066;52.106;5.534;2023-03-14T02:36:34;10.20;99.90
18297;DHT22;18066;52.106;5.534;2023-03-14T02:39:06;10.30;99.90
18297;DHT22;18066;52.106;5.534;2023-03-14T02:41:33;10.20;99.90
18297;DHT22;18066;52.106;5.534;2023-03-14T02:44:00;10.20;99.90
18297;DHT22;18066;52.106;5.534;2023-03-14T02:46:28;10.10;99.90
18297;DHT22;18066;52.106;5.534;2023-03-14T02:48:58;10.10;99.90
18297;DHT22;18066;52.106;5.534;2023-03-14T02:51:28;10.10;99.90
18297;DHT22;18066;52.106;5.534;2023-03-14T02:53:56;10.10;99.90
18297;DHT22;18066;52.106;5.534;2023-03-14T02:56:23;10.20;99.90
18297;DHT22;18066;52.106;5.534;2023-03-14T02:58:50;10.20;99.90
18297;DHT22;18066;52.106;5.534;2023-03-14T03:01:16;10.10;99.90
18297;DHT22;18066;52.106;5.534;2023-03-14T03:03:45;10.10;99.90
18297;DHT22;18066;52.106;5.534;2023-03-14T03:06:12;10.20;99.90
18297;DHT22;18066;52.106;5.534;2023-03-14T03:08:38;10.10;99.90
18297;DHT22;18066;52.106;5.534;2023-03-14T03:11:06;10.20;99.90
18297;DHT22;18066;52.106;5.534;2023-03-14T03:13:33;10.20;99.90
18297;DHT22;18066;52.106;5.534;2023-03-14T03:16:00;10.20;99.90
18297;DHT22;18066;52.106;5.534;2023-03-14T03:18:26;10.10;99.90
18297;DHT22;18066;52.106;5.534;2023-03-14T03:20:54;10.20;99.90
18297;DHT22;18066;52.106;5.534;2023-03-14T03:23:21;10.20;99.90
18297;DHT22;18066;52.106;5.534;2023-03-14T03:25:48;10.20;99.90
18297;DHT22;18066;52.106;5.534;2023-03-14T03:28:16;10.20;99.90
18297;DHT22;18066;52.106;5.534;2023-03-14T03:30:43;10.20;99.90
18297;DHT22;18066;52.106;5.534;2023-03-14T03:33:11;10.20;99.90
18297;DHT22;18066;52.106;5.534;2023-03-14T03:35:45;10.20;99.90
18297;DHT22;18066;52.106;5.534;2023-03-14T03:38:14;10.30;99.90
18297;DHT22;18066;52.106;5.534;2023-03-14T03:40:41;10.40;99.90
18297;DHT22;18066;52.106;5.534;2023-03-14T03:43:08;10.30;99.90
18297;DHT22;18066;52.106;5.534;2023-03-14T03:45:35;10.30;99.90
18297;DHT22;18066;52.106;5.534;2023-03-14T03:48:02;10.30;99.90
18297;DHT22;18066;52.106;5.534;2023-03-14T03:50:29;10.30;99.90
18297;DHT22;18066;52.106;5.534;2023-03-14T03:52:56;10.30;99.90
18297;DHT22;18066;52.106;5.534;2023-03-14T03:55:24;10.30;99.90
18297;DHT22;18066;52.106;5.534;2023-03-14T03:57:53;10.30;99.90
18297;DHT22;18066;52.106;5.534;2023-03-14T04:00:20;10.40;99.90
18297;DHT22;18066;52.106;5.534;2023-03-14T04:02:47;10.30;99.90
18297;DHT22;18066;52.106;5.534;2023-03-14T04:05:14;10.50;99.90
18297;DHT22;18066;52.106;5.534;2023-03-14T04:07:44;10.40;99.90
18297;DHT22;18066;52.106;5.534;2023-03-14T04:10:11;10.40;99.90
18297;DHT22;18066;52.106;5.534;2023-03-14T04:12:39;10.50;99.90
18297;DHT22;18066;52.106;5.534;2023-03-14T04:15:07;10.40;99.90
18297;DHT22;18066;52.106;5.534;2023-03-14T04:17:34;10.50;99.90
18297;DHT22;18066;52.106;5.534;2023-03-14T04:20:01;10.50;99.90
18297;DHT22;18066;52.106;5.534;2023-03-14T04:22:28;10.60;99.90
18297;DHT22;18066;52.106;5.534;2023-03-14T04:24:55;10.50;99.90
18297;DHT22;18066;52.106;5.534;2023-03-14T04:27:22;10.50;99.90
18297;DHT22;18066;52.106;5.534;2023-03-14T04:29:50;10.60;99.90
18297;DHT22;18066;52.106;5.534;2023-03-14T04:32:17;10.50;99.90
18297;DHT22;18066;52.106;5.534;2023-03-14T04:34:43;10.60;99.90
18297;DHT22;18066;52.106;5.534;2023-03-14T04:37:10;10.60;99.90
18297;DHT22;18066;52.106;5.534;2023-03-14T04:39:37;10.70;99.90
18297;DHT22;18066;52.106;5.534;2023-03-14T04:42:04;10.70;99.90
18297;DHT22;18066;52.106;5.534;2023-03-14T04:44:31;10.60;99.90
18297;DHT22;18066;52.106;5.534;2023-03-14T04:46:59;10.60;99.90
18297;DHT22;18066;52.106;5.534;2023-03-14T04:49:26;10.60;99.90
18297;DHT22;18066;52.106;5.534;2023-03-14T04:51:53;10.60;99.90
18297;DHT22;18066;52.106;5.534;2023-03-14T04:54:20;10.70;99.90
18297;DHT22;18066;52.106;5.534;2023-03-14T04:56:46;10.60;99.90
18297;DHT22;18066;52.106;5.534;2023-03-14T04:59:13;10.60;99.90
18297;DHT22;18066;52.106;5.534;2023-03-14T05:01:40;10.60;99.90
18297;DHT22;18066;52.106;5.534;2023-03-14T05:04:09;10.60;99.90
18297;DHT22;18066;52.106;5.534;2023-03-14T05:06:35;10.60;99.90
18297;DHT22;18066;52.106;5.534;2023-03-14T05:09:03;10.60;99.90
18297;DHT22;18066;52.106;5.534;2023-03-14T05:11:30;10.60;99.90
18297;DHT22;18066;52.106;5.534;2023-03-14T05:13:58;10.70;99.90
18297;DHT22;18066;52.106;5.534;2023-03-14T05:16:24;10.60;99.90
18297;DHT22;18066;52.106;5.534;2023-03-14T05:18:51;10.60;99.90
18297;DHT22;18066;52.106;5.534;2023-03-14T05:21:19;10.60;99.90
18297;DHT22;18066;52.106;5.534;2023-03-14T05:23:46;10.50;99.90
18297;DHT22;18066;52.106;5.534;2023-03-14T05:26:13;10.40;99.90
18297;DHT22;18066;52.106;5.534;2023-03-14T05:28:42;10.40;99.90
18297;DHT22;18066;52.106;5.534;2023-03-14T05:31:09;10.40;99.90
18297;DHT22;18066;52.106;5.534;2023-03-14T05:33:36;10.30;99.90
18297;DHT22;18066;52.106;5.534;2023-03-14T05:36:03;10.20;99.90
18297;DHT22;18066;52.106;5.534;2023-03-14T05:38:31;10.30;99.90
18297;DHT22;18066;52.106;5.534;2023-03-14T05:40:58;10.20;99.90
18297;DHT22;18066;52.106;5.534;2023-03-14T05:43:25;10.10;99.90
18297;DHT22;18066;52.106;5.534;2023-03-14T05:45:52;10.20;99.90
18297;DHT22;18066;52.106;5.534;2023-03-14T05:48:18;10.10;99.90
18297;DHT22;18066;52.106;5.534;2023-03-14T05:50:47;10.10;99.90
18297;DHT22;18066;52.106;5.534;2023-03-14T05:53:14;10.10;99.90
18297;DHT22;18066;52.106;5.534;2023-03-14T05:55:42;10.10;99.90
18297;DHT22;18066;52.106;5.534;2023-03-14T05:58:09;10.10;99.90
18297;DHT22;18066;52.106;5.534;2023-03-14T06:00:36;10.10;99.90
18297;DHT22;18066;52.106;5.534;2023-03-14T06:03:03;9.90;99.90
18297;DHT22;18066;52.106;5.534;2023-03-14T06:05:29;10.10;99.90
18297;DHT22;18066;52.106;5.534;2023-03-14T06:07:56;10.00;99.90
18297;DHT22;18066;52.106;5.534;2023-03-14T06:10:23;10.00;99.90
18297;DHT22;18066;52.106;5.534;2023-03-14T06:12:51;10.00;99.90
18297;DHT22;18066;52.106;5.534;2023-03-14T06:15:18;10.00;99.90
18297;DHT22;18066;52.106;5.534;2023-03-14T06:17:45;10.00;99.90
18297;DHT22;18066;52.106;5.534;2023-03-14T06:20:12;10.00;99.90
18297;DHT22;18066;52.106;5.534;2023-03-14T06:22:39;10.00;99.90
18297;DHT22;18066;52.106;5.534;2023-03-14T06:25:08;10.00;99.90
18297;DHT22;18066;52.106;5.534;2023-03-14T06:27:35;10.10;99.90
18297;DHT22;18066;52.106;5.534;2023-03-14T06:30:04;10.10;99.90
18297;DHT22;18066;52.106;5.534;2023-03-14T06:32:31;10.10;99.90
18297;DHT22;18066;52.106;5.534;2023-03-14T06:34:58;10.20;99.90
18297;DHT22;18066;52.106;5.534;2023-03-14T06:37:26;10.10;99.90
18297;DHT22;18066;52.106;5.534;2023-03-14T06:39:53;10.20;99.90
18297;DHT22;18066;52.106;5.534;2023-03-14T06:42:20;10.20;99.90
18297;DHT22;18066;52.106;5.534;2023-03-14T06:44:47;10.20;99.90
18297;DHT22;18066;52.106;5.534;2023-03-14T06:47:15;10.20;99.90
18297;DHT22;18066;52.106;5.534;2023-03-14T06:49:42;10.10;99.90
18297;DHT22;18066;52.106;5.534;2023-03-14T06:52:09;10.10;99.90
18297;DHT22;18066;52.106;5.534;2023-03-14T06:54:35;9.90;99.90
18297;DHT22;18066;52.106;5.534;2023-03-14T06:57:02;9.80;99.90
18297;DHT22;18066;52.106;5.534;2023-03-14T06:59:29;9.70;99.90
18297;DHT22;18066;52.106;5.534;2023-03-14T07:01:56;9.70;99.90
18297;DHT22;18066;52.106;5.534;2023-03-14T07:04:24;9.60;99.90
18297;DHT22;18066;52.106;5.534;2023-03-14T07:06:51;9.40;99.90
18297;DHT22;18066;52.106;5.534;2023-03-14T07:09:18;9.20;99.90
18297;DHT22;18066;52.106;5.534;2023-03-14T07:11:45;9.10;99.90
18297;DHT22;18066;52.106;5.534;2023-03-14T07:14:12;9.10;99.90
18297;DHT22;18066;52.106;5.534;2023-03-14T07:16:38;8.90;99.90
18297;DHT22;18066;52.106;5.534;2023-03-14T07:19:05;8.80;99.90
18297;DHT22;18066;52.106;5.534;2023-03-14T07:21:33;8.70;99.90
18297;DHT22;18066;52.106;5.534;2023-03-14T07:24:00;8.70;99.90
18297;DHT22;18066;52.106;5.534;2023-03-14T07:26:27;8.50;99.90
18297;DHT22;18066;52.106;5.534;2023-03-14T07:28:54;8.60;99.90
18297;DHT22;18066;52.106;5.534;2023-03-14T07:31:21;8.60;99.90
18297;DHT22;18066;52.106;5.534;2023-03-14T07:33:48;8.60;99.90
18297;DHT22;18066;52.106;5.534;2023-03-14T07:36:15;8.60;99.90
18297;DHT22;18066;52.106;5.534;2023-03-14T07:38:43;8.50;99.90
18297;DHT22;18066;52.106;5.534;2023-03-14T07:41:10;8.50;99.90
18297;DHT22;18066;52.106;5.534;2023-03-14T07:43:37;8.50;99.90
18297;DHT22;18066;52.106;5.534;2023-03-14T07:46:04;8.50;99.90
18297;DHT22;18066;52.106;5.534;2023-03-14T07:48:31;8.50;99.90
18297;DHT22;18066;52.106;5.534;2023-03-14T07:50:58;8.40;99.90
18297;DHT22;18066;52.106;5.534;2023-03-14T07:53:25;8.50;99.90
18297;DHT22;18066;52.106;5.534;2023-03-14T07:55:54;8.50;99.90
18297;DHT22;18066;52.106;5.534;2023-03-14T07:58:21;8.50;99.90
18297;DHT22;18066;52.106;5.534;2023-03-14T08:00:48;8.30;99.90
18297;DHT22;18066;52.106;5.534;2023-03-14T08:03:15;8.20;99.90
18297;DHT22;18066;52.106;5.534;2023-03-14T08:05:42;8.30;99.90
18297;DHT22;18066;52.106;5.534;2023-03-14T08:08:09;8.30;99.90
18297;DHT22;18066;52.106;5.534;2023-03-14T08:10:35;8.20;99.90
18297;DHT22;18066;52.106;5.534;2023-03-14T08:13:03;8.40;99.90
18297;DHT22;18066;52.106;5.534;2023-03-14T08:15:30;8.10;99.90
18297;DHT22;18066;52.106;5.534;2023-03-14T08:17:57;8.00;99.90
18297;DHT22;18066;52.106;5.534;2023-03-14T08:20:26;7.90;99.90
18297;DHT22;18066;52.106;5.534;2023-03-14T08:22:55;7.70;99.90
18297;DHT22;18066;52.106;5.534;2023-03-14T08:25:22;7.60;99.90
18297;DHT22;18066;52.106;5.534;2023-03-14T08:27:49;7.50;99.90
18297;DHT22;18066;52.106;5.534;2023-03-14T08:30:18;7.30;99.90
18297;DHT22;18066;52.106;5.534;2023-03-14T08:32:45;7.20;99.90
18297;DHT22;18066;52.106;5.534;2023-03-14T08:35:12;7.10;99.90
18297;DHT22;18066;52.106;5.534;2023-03-14T08:37:39;7.20;99.90
18297;DHT22;18066;52.106;5.534;2023-03-14T08:40:07;7.10;99.90
18297;DHT22;18066;52.106;5.534;2023-03-14T08:42:35;7.10;99.90
18297;DHT22;18066;52.106;5.534;2023-03-14T08:45:04;7.10;99.90
18297;DHT22;18066;52.106;5.534;2023-03-14T08:47:32;7.20;99.90
18297;DHT22;18066;52.106;5.534;2023-03-14T08:49:59;7.20;99.90
18297;DHT22;18066;52.106;5.534;2023-03-14T08:52:26;7.30;99.90
18297;DHT22;18066;52.106;5.534;2023-03-14T08:54:53;7.40;99.90
18297;DHT22;18066;52.106;5.534;2023-03-14T08:57:19;7.50;99.90
18297;DHT22;18066;52.106;5.534;2023-03-14T08:59:47;7.40;99.90
18297;DHT22;18066;52.106;5.534;2023-03-14T09:02:14;7.50;99.90
18297;DHT22;18066;52.106;5.534;2023-03-14T09:04:42;7.50;99.90
18297;DHT22;18066;52.106;5.534;2023-03-14T09:07:09;7.50;99.90
18297;DHT22;18066;52.106;5.534;2023-03-14T09:09:36;7.50;99.90
18297;DHT22;18066;52.106;5.534;2023-03-14T09:12:03;7.40;99.90
18297;DHT22;18066;52.106;5.534;2023-03-14T09:14:30;7.50;99.90
18297;DHT22;18066;52.106;5.534;2023-03-14T09:16:57;7.60;99.90
18297;DHT22;18066;52.106;5.534;2023-03-14T09:19:24;7.60;99.90
18297;DHT22;18066;52.106;5.534;2023-03-14T09:21:52;7.60;99.90
18297;DHT22;18066;52.106;5.534;2023-03-14T09:24:19;7.60;99.90
18297;DHT22;18066;52.106;5.534;2023-03-14T09:26:46;7.60;99.90
18297;DHT22;18066;52.106;5.534;2023-03-14T09:29:13;7.50;99.90
18297;DHT22;18066;52.106;5.534;2023-03-14T09:31:40;7.50;99.90
18297;DHT22;18066;52.106;5.534;2023-03-14T09:34:07;7.50;99.90
18297;DHT22;18066;52.106;5.534;2023-03-14T09:36:33;7.60;99.90
18297;DHT22;18066;52.106;5.534;2023-03-14T09:39:02;7.50;99.90
18297;DHT22;18066;52.106;5.534;2023-03-14T09:41:33;7.60;99.90
18297;DHT22;18066;52.106;5.534;2023-03-14T09:44:04;7.60;99.90
18297;DHT22;18066;52.106;5.534;2023-03-14T09:46:33;7.70;99.90
18297;DHT22;18066;52.106;5.534;2023-03-14T09:49:02;7.70;99.90
18297;DHT22;18066;52.106;5.534;2023-03-14T09:51:29;7.80;99.90
18297;DHT22;18066;52.106;5.534;2023-03-14T09:53:57;7.90;99.90
18297;DHT22;18066;52.106;5.534;2023-03-14T09:56:26;7.90;99.90
18297;DHT22;18066;52.106;5.534;2023-03-14T09:58:56;7.90;99.90
18297;DHT22;18066;52.106;5.534;2023-03-14T10:01:26;7.80;99.90
18297;DHT22;18066;52.106;5.534;2023-03-14T10:03:58;7.90;99.90
18297;DHT22;18066;52.106;5.534;2023-03-14T10:06:27;7.90;99.90
18297;DHT22;18066;52.106;5.534;2023-03-14T10:08:55;7.90;99.90
18297;DHT22;18066;52.106;5.534;2023-03-14T10:11:25;7.80;99.90
18297;DHT22;18066;52.106;5.534;2023-03-14T10:14:05;7.80;99.90
18297;DHT22;18066;52.106;5.534;2023-03-14T10:16:33;7.90;99.90
18297;DHT22;18066;52.106;5.534;2023-03-14T10:19:06;8.00;99.90
18297;DHT22;18066;52.106;5.534;2023-03-14T10:21:36;8.00;99.90
18297;DHT22;18066;52.106;5.534;2023-03-14T10:24:10;8.20;99.90
18297;DHT22;18066;52.106;5.534;2023-03-14T10:26:38;8.20;99.90
18297;DHT22;18066;52.106;5.534;2023-03-14T10:29:10;8.00;99.90
18297;DHT22;18066;52.106;5.534;2023-03-14T10:31:46;7.80;99.90
18297;DHT22;18066;52.106;5.534;2023-03-14T10:34:16;7.60;99.90
18297;DHT22;18066;52.106;5.534;2023-03-14T10:36:44;7.30;99.90
18297;DHT22;18066;52.106;5.534;2023-03-14T10:39:25;7.20;99.90
18297;DHT22;18066;52.106;5.534;2023-03-14T10:41:55;7.20;99.90
18297;DHT22;18066;52.106;5.534;2023-03-14T10:44:28;7.30;99.90
18297;DHT22;18066;52.106;5.534;2023-03-14T10:46:58;7.50;99.90
18297;DHT22;18066;52.106;5.534;2023-03-14T10:49:28;7.80;99.90
18297;DHT22;18066;52.106;5.534;2023-03-14T10:51:55;7.90;99.90
18297;DHT22;18066;52.106;5.534;2023-03-14T10:54:22;8.00;99.90
18297;DHT22;18066;52.106;5.534;2023-03-14T10:56:58;8.20;99.90
18297;DHT22;18066;52.106;5.534;2023-03-14T10:59:27;8.20;99.90
18297;DHT22;18066;52.106;5.534;2023-03-14T11:01:59;8.20;99.90
18297;DHT22;18066;52.106;5.534;2023-03-14T11:04:46;8.00;99.90
18297;DHT22;18066;52.106;5.534;2023-03-14T11:07:20;8.00;99.90
18297;DHT22;18066;52.106;5.534;2023-03-14T11:09:54;8.00;99.90
18297;DHT22;18066;52.106;5.534;2023-03-14T11:12:39;7.90;99.90
18297;DHT22;18066;52.106;5.534;2023-03-14T11:15:14;7.70;99.90
18297;DHT22;18066;52.106;5.534;2023-03-14T11:17:48;7.70;99.90
18297;DHT22;18066;52.106;5.534;2023-03-14T11:20:30;7.50;99.90
18297;DHT22;18066;52.106;5.534;2023-03-14T11:23:03;7.50;99.90
18297;DHT22;18066;52.106;5.534;2023-03-14T11:25:38;7.40;99.90
18297;DHT22;18066;52.106;5.534;2023-03-14T11:28:17;7.40;99.90
18297;DHT22;18066;52.106;5.534;2023-03-14T11:30:51;7.60;99.90
18297;DHT22;18066;52.106;5.534;2023-03-14T11:33:21;7.70;99.90
18297;DHT22;18066;52.106;5.534;2023-03-14T11:35:55;7.90;99.90
18297;DHT22;18066;52.106;5.534;2023-03-14T11:38:30;8.20;99.90
18297;DHT22;18066;52.106;5.534;2023-03-14T11:41:00;8.40;99.90
18297;DHT22;18066;52.106;5.534;2023-03-14T11:43:33;8.40;99.90
18297;DHT22;18066;52.106;5.534;2023-03-14T11:46:09;8.40;99.90
18297;DHT22;18066;52.106;5.534;2023-03-14T11:48:40;8.20;99.90
18297;DHT22;18066;52.106;5.534;2023-03-14T11:51:15;8.10;99.90
18297;DHT22;18066;52.106;5.534;2023-03-14T11:53:50;8.20;99.90
18297;DHT22;18066;52.106;5.534;2023-03-14T11:56:27;8.30;99.90
18297;DHT22;18066;52.106;5.534;2023-03-14T11:58:59;8.30;99.90
18297;DHT22;18066;52.106;5.534;2023-03-14T12:01:39;8.30;99.90
18297;DHT22;18066;52.106;5.534;2023-03-14T12:04:13;8.30;99.90
18297;DHT22;18066;52.106;5.534;2023-03-14T12:06:47;8.40;99.90
18297;DHT22;18066;52.106;5.534;2023-03-14T12:09:15;8.30;99.90
18297;DHT22;18066;52.106;5.534;2023-03-14T12:11:47;8.10;99.90
18297;DHT22;18066;52.106;5.534;2023-03-14T12:14:22;8.00;99.90
18297;DHT22;18066;52.106;5.534;2023-03-14T12:16:55;8.20;99.90
18297;DHT22;18066;52.106;5.534;2023-03-14T12:19:32;8.40;99.90
18297;DHT22;18066;52.106;5.534;2023-03-14T12:22:12;8.50;99.90
18297;DHT22;18066;52.106;5.534;2023-03-14T12:24:45;8.50;99.90
18297;DHT22;18066;52.106;5.534;2023-03-14T12:27:42;8.50;99.90
18297;DHT22;18066;52.106;5.534;2023-03-14T12:30:17;8.60;99.90
18297;DHT22;18066;52.106;5.534;2023-03-14T12:36:04;8.60;99.90
18297;DHT22;18066;52.106;5.534;2023-03-14T12:38:58;8.70;99.90
18297;DHT22;18066;52.106;5.534;2023-03-14T12:41:29;8.90;99.90
18297;DHT22;18066;52.106;5.534;2023-03-14T12:44:39;9.00;99.90
18297;DHT22;18066;52.106;5.534;2023-03-14T12:50:13;8.60;99.90
18297;DHT22;18066;52.106;5.534;2023-03-14T12:52:45;8.70;99.90
18297;DHT22;18066;52.106;5.534;2023-03-14T12:55:19;8.70;99.90
18297;DHT22;18066;52.106;5.534;2023-03-14T12:57:54;8.90;99.90
18297;DHT22;18066;52.106;5.534;2023-03-14T13:00:32;9.00;99.90
18297;DHT22;18066;52.106;5.534;2023-03-14T13:03:12;9.30;99.90
18297;DHT22;18066;52.106;5.534;2023-03-14T13:05:51;9.20;99.90
18297;DHT22;18066;52.106;5.534;2023-03-14T13:08:35;9.10;99.90
18297;DHT22;18066;52.106;5.534;2023-03-14T13:11:04;9.10;99.90
18297;DHT22;18066;52.106;5.534;2023-03-14T13:13:34;9.10;99.90
18297;DHT22;18066;52.106;5.534;2023-03-14T13:16:04;8.90;99.90
18297;DHT22;18066;52.106;5.534;2023-03-14T13:18:34;8.60;99.90
18297;DHT22;18066;52.106;5.534;2023-03-14T13:21:03;8.60;99.90
18297;DHT22;18066;52.106;5.534;2023-03-14T13:23:33;8.70;99.90
18297;DHT22;18066;52.106;5.534;2023-03-14T13:26:01;9.00;99.90
18297;DHT22;18066;52.106;5.534;2023-03-14T13:28:30;9.10;99.90
18297;DHT22;18066;52.106;5.534;2023-03-14T13:30:58;9.00;99.90
18297;DHT22;18066;52.106;5.534;2023-03-14T13:33:27;8.90;99.90
18297;DHT22;18066;52.106;5.534;2023-03-14T13:35:56;8.50;99.90
18297;DHT22;18066;52.106;5.534;2023-03-14T13:38:25;8.40;99.90
18297;DHT22;18066;52.106;5.534;2023-03-14T13:40:54;8.50;99.90
18297;DHT22;18066;52.106;5.534;2023-03-14T13:43:28;8.60;99.90
18297;DHT22;18066;52.106;5.534;2023-03-14T13:46:02;8.80;99.90
18297;DHT22;18066;52.106;5.534;2023-03-14T13:48:32;9.00;99.90
18297;DHT22;18066;52.106;5.534;2023-03-14T13:51:03;8.90;99.90
18297;DHT22;18066;52.106;5.534;2023-03-14T13:53:31;8.80;99.90
18297;DHT22;18066;52.106;5.534;2023-03-14T13:56:02;8.60;99.90
18297;DHT22;18066;52.106;5.534;2023-03-14T13:58:30;8.40;99.90
18297;DHT22;18066;52.106;5.534;2023-03-14T14:01:03;8.30;99.90
18297;DHT22;18066;52.106;5.534;2023-03-14T14:03:34;8.20;99.90
18297;DHT22;18066;52.106;5.534;2023-03-14T14:06:04;8.40;99.90
18297;DHT22;18066;52.106;5.534;2023-03-14T14:08:32;8.50;99.90
18297;DHT22;18066;52.106;5.534;2023-03-14T14:11:02;8.60;99.90
18297;DHT22;18066;52.106;5.534;2023-03-14T14:13:32;8.80;99.90
18297;DHT22;18066;52.106;5.534;2023-03-14T14:16:01;8.90;99.90
18297;DHT22;18066;52.106;5.534;2023-03-14T14:18:29;9.20;99.90
18297;DHT22;18066;52.106;5.534;2023-03-14T14:20:58;9.30;99.90
18297;DHT22;18066;52.106;5.534;2023-03-14T14:23:27;9.20;99.90
18297;DHT22;18066;52.106;5.534;2023-03-14T14:25:55;9.40;99.90
18297;DHT22;18066;52.106;5.534;2023-03-14T14:28:26;9.50;99.90
18297;DHT22;18066;52.106;5.534;2023-03-14T14:31:05;9.50;99.90
18297;DHT22;18066;52.106;5.534;2023-03-14T14:33:40;9.50;99.90
18297;DHT22;18066;52.106;5.534;2023-03-14T14:36:24;9.30;99.90
18297;DHT22;18066;52.106;5.534;2023-03-14T14:38:54;9.00;99.90
18297;DHT22;18066;52.106;5.534;2023-03-14T14:41:21;8.60;99.90
18297;DHT22;18066;52.106;5.534;2023-03-14T14:43:52;8.50;99.90
18297;DHT22;18066;52.106;5.534;2023-03-14T14:46:19;8.40;99.90
18297;DHT22;18066;52.106;5.534;2023-03-14T14:48:47;8.40;99.90
18297;DHT22;18066;52.106;5.534;2023-03-14T14:51:25;8.30;99.90
18297;DHT22;18066;52.106;5.534;2023-03-14T14:54:14;8.30;99.90
18297;DHT22;18066;52.106;5.534;2023-03-14T14:56:46;8.20;99.90
18297;DHT22;18066;52.106;5.534;2023-03-14T14:59:25;8.00;99.90
18297;DHT22;18066;52.106;5.534;2023-03-14T15:01:58;8.00;99.90
18297;DHT22;18066;52.106;5.534;2023-03-14T15:04:26;7.90;99.90
18297;DHT22;18066;52.106;5.534;2023-03-14T15:06:54;7.90;99.90
18297;DHT22;18066;52.106;5.534;2023-03-14T15:09:21;7.90;99.90
18297;DHT22;18066;52.106;5.534;2023-03-14T15:11:48;7.80;99.90
18297;DHT22;18066;52.106;5.534;2023-03-14T15:14:15;7.90;99.90
18297;DHT22;18066;52.106;5.534;2023-03-14T15:16:42;7.80;99.90
18297;DHT22;18066;52.106;5.534;2023-03-14T15:19:13;7.70;99.90
18297;DHT22;18066;52.106;5.534;2023-03-14T15:21:41;7.70;99.90
18297;DHT22;18066;52.106;5.534;2023-03-14T15:24:10;7.80;99.90
18297;DHT22;18066;52.106;5.534;2023-03-14T15:26:37;7.80;99.90
18297;DHT22;18066;52.106;5.534;2023-03-14T15:29:04;7.80;99.90
18297;DHT22;18066;52.106;5.534;2023-03-14T15:31:33;7.90;99.90
18297;DHT22;18066;52.106;5.534;2023-03-14T15:34:00;7.80;99.90
18297;DHT22;18066;52.106;5.534;2023-03-14T15:36:29;7.90;99.90
18297;DHT22;18066;52.106;5.534;2023-03-14T15:38:56;7.90;99.90
18297;DHT22;18066;52.106;5.534;2023-03-14T15:41:26;7.90;99.90
18297;DHT22;18066;52.106;5.534;2023-03-14T15:43:53;8.10;99.90
18297;DHT22;18066;52.106;5.534;2023-03-14T15:46:21;8.10;99.90
18297;DHT22;18066;52.106;5.534;2023-03-14T15:48:49;8.00;99.90
18297;DHT22;18066;52.106;5.534;2023-03-14T15:51:16;7.90;99.90
18297;DHT22;18066;52.106;5.534;2023-03-14T15:53:43;7.80;99.90
18297;DHT22;18066;52.106;5.534;2023-03-14T15:56:12;7.70;99.90
18297;DHT22;18066;52.106;5.534;2023-03-14T15:58:41;7.60;99.90
18297;DHT22;18066;52.106;5.534;2023-03-14T16:01:12;7.50;99.90